Time;durP1;ratioP1;P1;durP2;ratioP2;P2;SDS_P1;SDS_P2;PMS_P1;PMS_P2;Temp;Humidity;BMP_temperature;BMP_pressure;BME280_temperature;BME280_humidity;BME280_pressure;Samples;Min_cycle;Max_cycle;Signal;HPM_P1;HPM_P2
2021/06/30 00:04:37;;;;;;;2.03;1.60;;;19.30;93.60;;;;;;4831600;29;20066;-93
2021/06/30 00:07:35;;;;;;;;;;;;;;;;;;;;;
2021/06/30 00:11:48;;;;;;;;;;;;;;;;;;;;;
2021/06/30 00:18:21;;;;;;;;;;;;;;;;;;;;;
2021/06/30 00:21:18;;;;;;;;;;;;;;;;;;;;;
2021/06/30 00:23:58;;;;;;;1.25;1.15;;;19.10;93.80;;;;;;4957754;28;20068;-92
2021/06/30 00:26:39;;;;;;;;;;;;;;;;;;;;;
2021/06/30 00:29:05;;;;;;;;;;;19.10;93.90;;;;;;4976847;28;20029;-91
2021/06/30 00:31:34;;;;;;;1.50;1.20;;;19.10;94.20;;;;;;5032317;28;20003;-91
2021/06/30 00:34:39;;;;;;;2.08;1.13;;;19.00;94.10;;;;;;5035546;28;20034;-92
2021/06/30 00:40:18;;;;;;;;;;;19.00;94.20;;;;;;5012904;28;20040;-92
2021/06/30 00:42:50;;;;;;;1.58;0.90;;;19.00;94.40;;;;;;4996999;28;19913;-92
2021/06/30 00:45:22;;;;;;;1.15;0.93;;;19.00;94.30;;;;;;5007352;28;20485;-92
2021/06/30 00:48:17;;;;;;;1.13;0.80;;;18.90;94.30;;;;;;5036827;28;20024;-90
2021/06/30 00:51:00;;;;;;;;;;;;;;;;;;;;;
2021/06/30 00:53:29;;;;;;;1.73;1.10;;;18.90;94.40;;;;;;5036712;28;20025;-91
2021/06/30 00:56:43;;;;;;;;;;;;;;;;;;;;;
2021/06/30 00:59:26;;;;;;;1.92;1.20;;;18.80;94.40;;;;;;5037827;28;20028;-92
2021/06/30 01:02:17;;;;;;;3.13;1.20;;;18.80;94.40;;;;;;5008616;28;20112;-91
2021/06/30 01:05:01;;;;;;;2.50;1.17;;;18.80;94.40;;;;;;5004595;28;20080;-91
2021/06/30 01:07:58;;;;;;;1.27;0.93;;;18.80;94.40;;;;;;5036808;28;20025;-90
2021/06/30 01:10:34;;;;;;;2.40;1.10;;;18.80;94.40;;;;;;5015589;28;20021;-91
2021/06/30 01:13:11;;;;;;;3.35;1.20;;;18.80;94.40;;;;;;4998631;28;20441;-90
2021/06/30 01:16:11;;;;;;;;;;;;;;;;;;;;;
2021/06/30 01:19:15;;;;;;;;;;;;;;;;;;;;;
2021/06/30 01:22:03;;;;;;;;;;;;;;;;;;;;;
2021/06/30 01:24:42;;;;;;;;;;;;;;;;;;;;;
2021/06/30 01:27:17;;;;;;;1.08;0.98;;;18.60;94.50;;;;;;5022208;28;20457;-90
2021/06/30 01:30:00;;;;;;;2.13;1.40;;;18.70;94.50;;;;;;5018238;28;20119;-90
2021/06/30 01:32:47;;;;;;;1.65;1.17;;;18.60;94.60;;;;;;5018552;28;20473;-91
2021/06/30 01:35:29;;;;;;;1.73;1.23;;;18.60;94.60;;;;;;5035233;28;20025;-91
2021/06/30 01:37:57;;;;;;;2.35;1.20;;;18.60;94.70;;;;;;4999000;28;20109;-92
2021/06/30 01:40:26;;;;;;;2.33;1.30;;;18.60;94.70;;;;;;5001515;28;20021;-91
2021/06/30 01:43:05;;;;;;;1.60;1.00;;;18.50;94.70;;;;;;5017710;28;20166;-90
2021/06/30 01:45:54;;;;;;;1.55;1.27;;;18.50;94.70;;;;;;5017599;28;20049;-91
2021/06/30 01:48:43;;;;;;;1.45;1.13;;;18.50;94.70;;;;;;5017822;28;20028;-90
2021/06/30 01:51:16;;;;;;;2.08;1.27;;;18.50;94.80;;;;;;5010406;28;20025;-90
2021/06/30 01:54:16;;;;;;;;;;;;;;;;;;;;;
2021/06/30 01:57:08;;;;;;;2.80;1.33;;;18.50;94.90;;;;;;5018410;28;20048;-91
2021/06/30 01:59:44;;;;;;;1.83;1.30;;;18.50;95.00;;;;;;5033755;28;20032;-91
2021/06/30 02:02:15;;;;;;;1.98;1.33;;;18.40;95.00;;;;;;5017099;28;20025;-90
2021/06/30 02:04:53;;;;;;;2.25;1.40;;;18.40;94.90;;;;;;5016479;28;20077;-89
2021/06/30 02:07:21;;;;;;;1.77;1.20;;;18.40;94.90;;;;;;5017150;28;20104;-90
2021/06/30 02:10:36;;;;;;;;;;;;;;;;;;;;;
2021/06/30 02:13:07;;;;;;;2.30;1.23;;;18.40;95.10;;;;;;5034751;28;20031;-90
2021/06/30 02:15:45;;;;;;;;;;;;;;;;;;;;;
2021/06/30 02:18:13;;;;;;;1.30;1.20;;;18.30;95.10;;;;;;5034620;28;20025;-90
2021/06/30 02:20:41;;;;;;;1.60;1.40;;;18.30;95.10;;;;;;5017082;28;20048;-91
2021/06/30 02:23:15;;;;;;;1.50;1.23;;;18.30;95.20;;;;;;5000791;28;20022;-90
2021/06/30 02:28:38;;;;;;;1.83;1.50;;;18.30;95.30;;;;;;5019861;28;20035;-90
2021/06/30 02:31:07;;;;;;;1.50;1.40;;;18.30;95.40;;;;;;5015731;28;20025;-89
2021/06/30 02:33:35;;;;;;;2.22;1.48;;;18.20;95.40;;;;;;4999943;28;20051;-90
2021/06/30 02:36:04;;;;;;;2.25;1.40;;;18.20;95.40;;;;;;5016607;28;20018;-89
2021/06/30 02:38:55;;;;;;;1.73;1.20;;;18.20;95.30;;;;;;5038788;28;20018;-90
2021/06/30 02:42:00;;;;;;;;;;;;;;;;;;;;;
2021/06/30 02:44:44;;;;;;;;;;;;;;;;;;;;;
2021/06/30 02:47:14;;;;;;;1.70;1.20;;;18.20;95.50;;;;;;5032887;28;20458;-90
2021/06/30 02:49:45;;;;;;;1.90;1.10;;;18.20;95.60;;;;;;5015549;28;20033;-90
2021/06/30 02:52:23;;;;;;;1.08;1.00;;;18.20;95.50;;;;;;5016059;28;20049;-92
2021/06/30 02:55:14;;;;;;;1.52;1.25;;;18.10;95.50;;;;;;5015728;28;20116;-89
2021/06/30 02:57:45;;;;;;;;;;;18.10;95.50;;;;;;5016168;28;20100;-90
2021/06/30 03:00:39;;;;;;;1.30;1.20;;;18.10;95.60;;;;;;4999811;28;19905;-89
2021/06/30 03:03:15;;;;;;;1.40;1.20;;;18.10;95.70;;;;;;5011845;28;20029;-89
2021/06/30 03:06:23;;;;;;;;;;;;;;;;;;;;;
2021/06/30 03:09:13;;;;;;;;;;;;;;;;;;;;;
2021/06/30 03:14:40;;;;;;;2.75;1.42;;;18.00;95.70;;;;;;5033186;28;20029;-90
2021/06/30 03:17:37;;;;;;;1.38;1.27;;;18.00;95.70;;;;;;5032576;28;20509;-90
2021/06/30 03:20:15;;;;;;;1.40;1.25;;;18.00;95.80;;;;;;5012508;28;20036;-89
2021/06/30 03:22:46;;;;;;;1.70;1.30;;;17.90;95.80;;;;;;5015662;28;20373;-91
2021/06/30 03:25:24;;;;;;;1.45;1.20;;;17.90;95.80;;;;;;5032366;28;20033;-89
2021/06/30 03:28:12;;;;;;;1.20;1.10;;;17.90;95.80;;;;;;5016122;28;20084;-91
2021/06/30 03:31:00;;;;;;;1.45;1.25;;;17.90;95.80;;;;;;5029257;28;20029;-90
2021/06/30 03:33:29;;;;;;;2.25;1.50;;;17.80;95.90;;;;;;4998261;28;20052;-89
2021/06/30 03:38:45;;;;;;;1.95;1.48;;;17.80;95.90;;;;;;5033157;28;20535;-88
2021/06/30 03:41:26;;;;;;;1.67;1.33;;;17.80;95.90;;;;;;5004754;28;20077;-88
2021/06/30 03:43:54;;;;;;;;;;;17.80;96.00;;;;;;5014401;28;20025;-88
2021/06/30 03:46:24;;;;;;;1.77;1.45;;;17.80;96.10;;;;;;5015645;28;19901;-90
2021/06/30 03:48:55;;;;;;;2.38;1.33;;;17.80;96.10;;;;;;5019035;28;20024;-88
2021/06/30 03:51:26;;;;;;;1.35;1.25;;;17.80;96.20;;;;;;5003265;28;20435;-89
2021/06/30 03:54:24;;;;;;;;;;;;;;;;;;;;;
2021/06/30 03:56:51;;;;;;;1.83;1.27;;;17.70;96.40;;;;;;5024122;28;20032;-89
2021/06/30 03:59:35;;;;;;;3.38;1.60;;;17.70;96.50;;;;;;5019646;28;20028;-90
2021/06/30 04:02:04;;;;;;;1.77;1.42;;;17.70;96.50;;;;;;5053067;28;20112;-89
2021/06/30 04:04:50;;;;;;;;;;;;;;;;;;;;;
2021/06/30 04:07:24;;;;;;;1.50;1.40;;;17.60;96.60;;;;;;5035749;28;20022;-89
2021/06/30 04:10:14;;;;;;;1.40;1.30;;;17.60;96.60;;;;;;5000445;28;20164;-90
2021/06/30 04:12:44;;;;;;;1.88;1.27;;;17.60;96.60;;;;;;5021875;28;20033;-90
2021/06/30 04:15:30;;;;;;;1.95;1.50;;;17.60;96.70;;;;;;5019708;28;20109;-91
2021/06/30 04:18:08;;;;;;;;;;;;;;;;;;;;;
2021/06/30 04:20:47;;;;;;;;;;;;;;;;;;;;;
2021/06/30 04:26:27;;;;;;;;;;;;;;;;;;;;;
2021/06/30 04:29:05;;;;;;;;;;;;;;;;;;;;;
2021/06/30 04:31:59;;;;;;;1.95;1.40;;;17.50;97.00;;;;;;5037615;28;20454;-91
2021/06/30 04:34:48;;;;;;;1.63;1.50;;;17.50;97.00;;;;;;5018398;28;20088;-90
2021/06/30 04:38:08;;;;;;;2.75;1.52;;;17.40;97.00;;;;;;4996734;28;20030;-89
2021/06/30 04:41:05;;;;;;;1.85;1.50;;;17.40;97.00;;;;;;5025002;28;20036;-90
2021/06/30 04:43:36;;;;;;;2.15;1.58;;;17.40;97.10;;;;;;5019103;28;20025;-90
2021/06/30 04:46:35;;;;;;;;;;;;;;;;;;;;;
2021/06/30 04:49:06;;;;;;;2.97;2.05;;;17.40;97.10;;;;;;5004991;28;20024;-90
2021/06/30 04:51:50;;;;;;;;;;;;;;;;;;;;;
2021/06/30 04:54:20;;;;;;;3.90;1.90;;;17.40;97.20;;;;;;5036960;28;20022;-90
2021/06/30 04:56:56;;;;;;;3.20;1.92;;;17.40;97.20;;;;;;5019095;28;20021;-89
2021/06/30 05:00:13;;;;;;;2.70;2.13;;;17.30;97.20;;;;;;5000981;28;20146;-91
2021/06/30 05:03:10;;;;;;;4.50;2.47;;;17.40;97.30;;;;;;5000164;28;20339;-90
2021/06/30 05:05:50;;;;;;;4.57;1.92;;;17.30;97.20;;;;;;5021429;28;20065;-90
2021/06/30 05:08:39;;;;;;;3.60;2.00;;;17.30;97.20;;;;;;5039231;28;20071;-90
2021/06/30 05:11:18;;;;;;;3.83;2.10;;;17.30;97.20;;;;;;5021409;28;20021;-92
2021/06/30 05:13:56;;;;;;;4.22;2.40;;;17.30;97.20;;;;;;5021796;28;20036;-90
2021/06/30 05:16:31;;;;;;;3.80;2.05;;;17.30;97.30;;;;;;5021224;28;20441;-90
2021/06/30 05:19:09;;;;;;;;;;;;;;;;;;;;;
2021/06/30 05:21:40;;;;;;;3.75;2.45;;;17.30;97.40;;;;;;5052478;28;20039;-89
2021/06/30 05:27:15;;;;;;;3.38;2.30;;;17.30;97.40;;;;;;5020264;28;20061;-89
2021/06/30 05:29:47;;;;;;;3.50;2.70;;;17.20;97.50;;;;;;5039068;28;20077;-92
2021/06/30 05:32:16;;;;;;;4.20;2.90;;;17.20;97.50;;;;;;5056234;28;20029;-93
2021/06/30 05:34:44;;;;;;;4.18;2.50;;;17.20;97.50;;;;;;5041165;28;20055;-90
2021/06/30 05:37:15;;;;;;;3.20;2.40;;;17.20;97.50;;;;;;5040298;28;20009;-90
2021/06/30 05:40:02;;;;;;;;;;;;;;;;;;;;;
2021/06/30 05:42:42;;;;;;;4.20;2.80;;;17.20;97.50;;;;;;5055587;28;20405;-89
2021/06/30 05:45:36;;;;;;;4.10;2.60;;;17.10;97.60;;;;;;5036583;28;20029;-94
2021/06/30 05:48:13;;;;;;;4.47;2.90;;;17.10;97.60;;;;;;5049729;28;20034;-88
2021/06/30 05:51:02;;;;;;;4.68;2.90;;;17.10;97.60;;;;;;5037727;28;20034;-89
2021/06/30 05:53:30;;;;;;;4.75;3.20;;;17.10;97.70;;;;;;5064003;28;20069;-88
2021/06/30 05:55:56;;;;;;;4.28;2.80;;;17.10;97.80;;;;;;5041580;28;20024;-88
2021/06/30 05:58:40;;;;;;;;;;;;;;;;;;;;;
2021/06/30 06:01:10;;;;;;;4.07;2.53;;;17.00;97.90;;;;;;5038438;28;20013;-89
2021/06/30 06:04:44;;;;;;;5.50;3.30;;;17.10;98.00;;;;;;5038519;28;20459;-91
2021/06/30 06:06:54;;;;;;;4.15;2.58;;;17.00;98.10;;;;;;5003409;28;20057;-90
2021/06/30 06:09:35;;;;;;;3.70;2.60;;;17.00;98.20;;;;;;4997544;28;20041;-91
2021/06/30 06:12:14;;;;;;;;;;;;;;;;;;;;;
2021/06/30 06:15:42;;;;;;;;;;;;;;;;;;;;;
2021/06/30 06:18:28;;;;;;;3.72;2.78;;;16.90;98.50;;;;;;5015587;28;20022;-91
2021/06/30 06:21:23;;;;;;;4.45;2.95;;;16.90;98.60;;;;;;4997140;28;20036;-90
2021/06/30 06:24:10;;;;;;;;;;;;;;;;;;;;;
2021/06/30 06:27:06;;;;;;;3.58;2.80;;;16.90;98.80;;;;;;5002571;28;20404;-90
2021/06/30 06:29:37;;;;;;;6.00;3.65;;;16.90;98.80;;;;;;5016465;28;20022;-90
2021/06/30 06:32:12;;;;;;;3.83;2.70;;;16.90;98.90;;;;;;5005048;28;20019;-90
2021/06/30 06:34:54;;;;;;;3.75;2.85;;;16.90;99.00;;;;;;5005793;28;20038;-89
2021/06/30 06:37:36;;;;;;;4.93;3.20;;;16.80;99.00;;;;;;4979573;28;20038;-88
2021/06/30 06:40:28;;;;;;;4.25;2.92;;;16.80;99.00;;;;;;5011362;28;20454;-90
2021/06/30 06:43:21;;;;;;;3.65;2.83;;;16.90;99.00;;;;;;5034965;28;20037;-88
2021/06/30 06:46:22;;;;;;;3.38;2.53;;;16.90;99.10;;;;;;4993733;28;20032;-89
2021/06/30 06:49:24;;;;;;;;;;;;;;;;;;;;;
2021/06/30 06:52:01;;;;;;;4.00;2.83;;;16.80;99.10;;;;;;5009023;28;20044;-89
2021/06/30 06:58:24;;;;;;;;;;;;;;;;;;;;;
2021/06/30 07:01:13;;;;;;;3.25;2.25;;;16.80;99.20;;;;;;5012652;28;20291;-90
2021/06/30 07:04:07;;;;;;;5.88;2.60;;;16.80;99.40;;;;;;5026662;28;20146;-90
2021/06/30 07:06:54;;;;;;;;;;;;;;;;;;;;;
2021/06/30 07:09:38;;;;;;;;;;;;;;;;;;;;;
2021/06/30 07:12:22;;;;;;;3.83;2.60;;;16.80;99.50;;;;;;5033633;28;20032;-89
2021/06/30 07:16:14;;;;;;;;;;;;;;;;;;;;;
2021/06/30 07:25:53;;;;;;;3.90;2.60;;;16.90;99.90;;;;;;4973444;28;20045;-89
2021/06/30 07:28:32;;;;;;;3.95;2.92;;;16.90;99.90;;;;;;5015827;28;20045;-91
2021/06/30 07:31:01;;;;;;;4.00;3.05;;;16.90;99.90;;;;;;5022534;28;20084;-91
2021/06/30 07:33:43;;;;;;;4.22;2.95;;;16.90;99.90;;;;;;5012517;28;20957;-88
2021/06/30 07:36:12;;;;;;;3.97;3.10;;;16.90;99.90;;;;;;5031534;28;20029;-88
2021/06/30 07:38:46;;;;;;;3.03;2.72;;;16.90;99.90;;;;;;4999196;28;20482;-88
2021/06/30 07:41:14;;;;;;;4.22;2.85;;;16.90;99.90;;;;;;5023843;28;20080;-89
2021/06/30 07:44:04;;;;;;;4.57;2.95;;;17.00;99.90;;;;;;5014512;28;20052;-88
2021/06/30 07:49:35;;;;;;;3.15;2.78;;;17.00;99.90;;;;;;5035426;28;20041;-89
2021/06/30 07:52:56;;;;;;;;;;;;;;;;;;;;;
2021/06/30 07:55:45;;;;;;;3.55;2.80;;;17.00;99.90;;;;;;5026418;28;20288;-89
2021/06/30 08:02:26;;;;;;;3.65;2.90;;;17.00;99.90;;;;;;5012259;28;20035;-91
2021/06/30 08:04:53;;;;;;;4.10;2.70;;;17.00;99.90;;;;;;5019037;28;20041;-90
2021/06/30 08:07:41;;;;;;;;;;;;;;;;;;;;;
2021/06/30 08:17:09;;;;;;;3.88;3.25;;;17.10;99.90;;;;;;4918047;28;20064;-89
2021/06/30 08:20:04;;;;;;;;;;;;;;;;;;;;;
2021/06/30 08:23:20;;;;;;;5.10;3.47;;;17.10;99.90;;;;;;5020031;28;20112;-89
2021/06/30 08:29:43;;;;;;;4.43;3.35;;;17.10;99.90;;;;;;5023527;28;20029;-89
2021/06/30 08:32:27;;;;;;;;;;;;;;;;;;;;;
2021/06/30 08:35:19;;;;;;;5.95;3.38;;;17.10;99.90;;;;;;5025356;28;20143;-89
2021/06/30 08:38:33;;;;;;;;;;;;;;;;;;;;;
2021/06/30 08:41:35;;;;;;;;;;;;;;;;;;;;;
2021/06/30 08:44:44;;;;;;;;;;;;;;;;;;;;;
2021/06/30 08:47:45;;;;;;;4.47;3.78;;;17.10;99.90;;;;;;5020698;28;20034;-90
2021/06/30 08:50:25;;;;;;;4.38;3.45;;;17.20;99.90;;;;;;5058121;28;20033;-90
2021/06/30 08:53:32;;;;;;;4.32;3.45;;;17.20;99.90;;;;;;5024569;28;20025;-89
2021/06/30 08:56:08;;;;;;;4.70;3.40;;;17.20;99.90;;;;;;5039654;28;20022;-90
2021/06/30 09:02:35;;;;;;;;;;;;;;;;;;;;;
2021/06/30 09:08:00;;;;;;;5.00;4.15;;;17.20;99.90;;;;;;5038654;28;20035;-91
2021/06/30 09:13:40;;;;;;;5.32;4.15;;;17.20;99.90;;;;;;5013254;28;20412;-89
2021/06/30 09:16:34;;;;;;;6.63;3.67;;;17.20;99.90;;;;;;5022881;28;20014;-91
2021/06/30 09:19:18;;;;;;;4.97;3.60;;;17.20;99.90;;;;;;5027799;28;20029;-90
2021/06/30 09:22:34;;;;;;;4.72;3.60;;;17.20;99.90;;;;;;5027052;28;20026;-93
2021/06/30 09:25:54;;;;;;;5.15;3.95;;;17.20;99.90;;;;;;4950962;29;20023;-96
2021/06/30 09:28:50;;;;;;;5.00;3.83;;;17.30;99.90;;;;;;5002511;28;20084;-93
2021/06/30 09:32:35;;;;;;;;;;;;;;;;;;;;;
2021/06/30 09:35:51;;;;;;;;;;;;;;;;;;;;;
2021/06/30 09:39:05;;;;;;;5.03;4.03;;;17.30;99.90;;;;;;5025781;28;20041;-92
2021/06/30 09:41:44;;;;;;;;;;;;;;;;;;;;;
2021/06/30 09:44:33;;;;;;;;;;;;;;;;;;;;;
2021/06/30 09:54:43;;;;;;;3.90;3.20;;;17.30;99.90;;;;;;4893875;29;20060;-93
2021/06/30 10:00:28;;;;;;;4.35;3.30;;;17.40;99.90;;;;;;4889029;29;20036;-92
2021/06/30 10:03:11;;;;;;;4.35;3.40;;;17.40;99.90;;;;;;4970874;28;20111;-91
2021/06/30 10:12:04;;;;;;;5.90;3.28;;;17.40;99.90;;;;;;5011144;28;20112;-90
2021/06/30 10:15:07;;;;;;;5.72;3.88;;;17.40;99.90;;;;;;5029202;28;20026;-90
2021/06/30 10:17:51;;;;;;;;;;;;;;;;;;;;;
2021/06/30 10:20:35;;;;;;;;;;;;;;;;;;;;;
2021/06/30 10:23:20;;;;;;;;;;;;;;;;;;;;;
2021/06/30 10:26:16;;;;;;;5.30;4.20;;;17.50;99.90;;;;;;5042976;28;20382;-90
2021/06/30 10:28:45;;;;;;;4.65;4.00;;;17.50;99.90;;;;;;5024327;28;20021;-90
2021/06/30 10:31:31;;;;;;;;;;;;;;;;;;;;;
2021/06/30 10:34:15;;;;;;;;;;;;;;;;;;;;;
2021/06/30 10:37:36;;;;;;;4.95;3.80;;;17.50;99.90;;;;;;5037589;28;20403;-90
2021/06/30 10:40:16;;;;;;;5.80;4.10;;;17.50;99.90;;;;;;5035268;28;20056;-90
2021/06/30 10:43:08;;;;;;;4.65;3.70;;;17.50;99.90;;;;;;5052986;28;20539;-90
2021/06/30 10:47:14;;;;;;;;;;;;;;;;;;;;;
2021/06/30 10:49:44;;;;;;;;;;;;;;;;;;;;;
2021/06/30 10:52:46;;;;;;;5.32;3.88;;;17.60;99.90;;;;;;5046179;28;20013;-92
2021/06/30 10:55:37;;;;;;;5.38;4.10;;;17.60;99.90;;;;;;5039888;28;20055;-90
2021/06/30 10:58:24;;;;;;;4.55;3.75;;;17.60;99.90;;;;;;5025370;28;20484;-89
2021/06/30 11:01:31;;;;;;;6.47;4.20;;;17.60;99.90;;;;;;5024950;28;20014;-90
2021/06/30 11:05:04;;;;;;;5.22;3.95;;;17.70;99.90;;;;;;5043550;28;20546;-90
2021/06/30 11:08:49;;;;;;;;;;;;;;;;;;;;;
2021/06/30 11:15:04;;;;;;;;;;;;;;;;;;;;;
2021/06/30 11:18:26;;;;;;;;;;;;;;;;;;;;;
2021/06/30 11:21:41;;;;;;;;;;;;;;;;;;;;;
2021/06/30 11:27:17;;;;;;;6.70;4.72;;;17.90;99.90;;;;;;5035208;28;20021;-88
2021/06/30 11:29:53;;;;;;;5.88;4.20;;;17.90;99.90;;;;;;5017035;28;20044;-86
2021/06/30 11:32:38;;;;;;;6.13;5.05;;;17.90;99.90;;;;;;5015063;28;20026;-80
2021/06/30 11:35:04;;;;;;;7.60;5.68;;;17.90;99.90;;;;;;5014058;28;20026;-80
2021/06/30 11:37:30;;;;;;;7.03;6.03;;;17.90;99.90;;;;;;5047753;28;20105;-81
2021/06/30 11:40:05;;;;;;;7.32;6.05;;;17.90;99.90;;;;;;5014778;28;20032;-81
2021/06/30 11:42:35;;;;;;;9.20;6.45;;;17.90;99.90;;;;;;5014780;28;20010;-81
2021/06/30 11:45:02;;;;;;;7.75;6.40;;;17.90;99.90;;;;;;5031890;28;20109;-82
2021/06/30 11:47:28;;;;;;;8.70;6.47;;;17.90;99.90;;;;;;5047177;28;20033;-82
2021/06/30 11:50:06;;;;;;;7.57;6.75;;;17.90;99.90;;;;;;5014457;28;20084;-82
2021/06/30 11:52:32;;;;;;;10.32;7.40;;;17.90;99.90;;;;;;5014143;28;20013;-82
2021/06/30 11:55:02;;;;;;;7.70;6.65;;;17.90;99.90;;;;;;4998696;28;20376;-82
2021/06/30 11:57:28;;;;;;;7.85;6.25;;;17.90;99.90;;;;;;5016108;28;20033;-81
2021/06/30 12:00:11;;;;;;;7.15;6.30;;;17.90;99.90;;;;;;4999078;28;20029;-82
2021/06/30 12:03:09;;;;;;;10.90;8.60;;;17.90;99.90;;;;;;5033267;28;20463;-81
2021/06/30 12:06:04;;;;;;;;;;;;;;;;;;;;;
2021/06/30 12:09:03;;;;;;;9.60;7.93;;;17.90;99.90;;;;;;4976735;28;20113;-91
2021/06/30 12:12:27;;;;;;;9.73;7.78;;;17.80;99.90;;;;;;5040006;28;20061;-93
2021/06/30 12:18:26;;;;;;;8.95;8.05;;;17.80;99.90;;;;;;5039990;28;20033;-90
2021/06/30 12:21:11;;;;;;;;;;;17.80;99.90;;;;;;5000177;28;20040;-91
2021/06/30 12:27:28;;;;;;;10.00;8.25;;;17.80;99.90;;;;;;4950814;28;20046;-89
2021/06/30 12:30:13;;;;;;;9.73;8.38;;;17.80;99.90;;;;;;4965074;28;20018;-89
2021/06/30 12:36:05;;;;;;;9.38;7.57;;;17.80;99.90;;;;;;4983820;28;20026;-88
2021/06/30 12:39:53;;;;;;;10.48;8.25;;;17.80;99.90;;;;;;4985190;28;20454;-89
2021/06/30 12:42:22;;;;;;;9.27;7.47;;;17.80;99.90;;;;;;4994030;28;20501;-86
2021/06/30 12:45:46;;;;;;;;;;;;;;;;;;;;;
2021/06/30 12:48:21;;;;;;;8.85;7.28;;;17.80;99.90;;;;;;5018276;28;20429;-85
2021/06/30 12:50:55;;;;;;;9.45;7.68;;;17.80;99.90;;;;;;5023248;28;20046;-86
2021/06/30 12:53:53;;;;;;;11.20;8.50;;;17.80;99.90;;;;;;5023041;28;20021;-86
2021/06/30 12:56:48;;;;;;;10.00;8.15;;;17.80;99.90;;;;;;5036477;28;20029;-86
2021/06/30 12:59:21;;;;;;;10.90;7.30;;;17.80;99.90;;;;;;5041386;28;20047;-91
2021/06/30 13:02:32;;;;;;;10.43;7.60;;;17.80;99.90;;;;;;5019957;28;20025;-87
2021/06/30 13:05:34;;;;;;;9.65;7.15;;;17.80;99.90;;;;;;5015463;28;20030;-88
2021/06/30 13:08:02;;;;;;;9.27;7.53;;;17.80;99.90;;;;;;5020997;28;20354;-86
2021/06/30 13:10:40;;;;;;;10.05;7.85;;;17.80;99.90;;;;;;5021761;28;20028;-86
2021/06/30 13:13:47;;;;;;;;;;;;;;;;;;;;;
2021/06/30 13:19:44;;;;;;;9.63;7.30;;;17.90;99.90;;;;;;5001146;28;20073;-87
2021/06/30 13:22:34;;;;;;;9.48;7.38;;;17.80;99.90;;;;;;5008237;28;20025;-89
2021/06/30 13:25:28;;;;;;;8.10;7.27;;;17.80;99.90;;;;;;5005225;28;20025;-84
2021/06/30 13:28:19;;;;;;;10.88;7.90;;;17.80;99.90;;;;;;5021615;28;20030;-83
2021/06/30 13:36:28;;;;;;;11.15;8.43;;;17.80;99.90;;;;;;5052648;28;20040;-86
2021/06/30 13:38:57;;;;;;;11.55;8.32;;;17.80;99.90;;;;;;5028826;28;20052;-86
2021/06/30 13:44:57;;;;;;;10.07;8.13;;;17.80;99.90;;;;;;5052162;28;20040;-87
2021/06/30 13:51:21;;;;;;;;;;;;;;;;;;;;;
2021/06/30 13:54:25;;;;;;;;;;;;;;;;;;;;;
2021/06/30 13:57:22;;;;;;;10.40;7.93;;;17.80;99.90;;;;;;4980713;28;20118;-89
2021/06/30 14:00:18;;;;;;;;;;;;;;;;;;;;;
2021/06/30 14:02:54;;;;;;;11.05;8.70;;;17.80;99.90;;;;;;4984033;28;20105;-88
2021/06/30 14:05:40;;;;;;;;;;;;;;;;;;;;;
2021/06/30 14:08:16;;;;;;;10.07;8.18;;;17.80;99.90;;;;;;4982349;28;20546;-88
2021/06/30 14:11:25;;;;;;;9.55;7.60;;;17.80;99.90;;;;;;4992280;28;20188;-86
2021/06/30 14:20:51;;;;;;;9.98;7.68;;;17.70;99.90;;;;;;5048900;28;20365;-85
2021/06/30 14:26:51;;;;;;;10.63;6.97;;;17.70;99.90;;;;;;4982713;28;20045;-86
2021/06/30 14:29:19;;;;;;;11.70;7.82;;;17.70;99.90;;;;;;4977395;28;20027;-87
2021/06/30 14:31:48;;;;;;;8.75;7.45;;;17.70;99.90;;;;;;4998661;28;20074;-87
2021/06/30 14:34:21;;;;;;;10.35;7.50;;;17.70;99.90;;;;;;4983445;28;20062;-87
2021/06/30 14:36:50;;;;;;;10.05;7.82;;;17.70;99.90;;;;;;5000000;28;20034;-87
2021/06/30 14:39:36;;;;;;;9.13;7.25;;;17.70;99.90;;;;;;4982140;28;20026;-88
2021/06/30 14:42:30;;;;;;;9.93;7.88;;;17.70;99.90;;;;;;4975209;28;20030;-87
2021/06/30 14:45:05;;;;;;;9.93;7.90;;;17.70;99.90;;;;;;4956433;28;20042;-87
2021/06/30 14:50:38;;;;;;;8.85;7.38;;;17.70;99.90;;;;;;4971309;28;20035;-86
2021/06/30 14:53:15;;;;;;;;;;;;;;;;;;;;;
2021/06/30 14:55:50;;;;;;;9.90;7.63;;;17.80;99.90;;;;;;4992844;28;20030;-88
2021/06/30 14:58:31;;;;;;;;;;;;;;;;;;;;;
2021/06/30 15:01:10;;;;;;;;;;;;;;;;;;;;;
2021/06/30 15:03:43;;;;;;;8.82;7.45;;;17.80;99.90;;;;;;5034161;28;20010;-90
2021/06/30 15:06:18;;;;;;;8.57;7.10;;;17.80;99.90;;;;;;5018343;28;20061;-89
2021/06/30 15:09:03;;;;;;;;;;;;;;;;;;;;;
2021/06/30 15:12:05;;;;;;;;;;;;;;;;;;;;;
2021/06/30 15:15:01;;;;;;;7.82;6.75;;;17.80;99.90;;;;;;5026590;28;20032;-90
2021/06/30 15:17:41;;;;;;;9.02;7.28;;;17.80;99.90;;;;;;5007795;28;20017;-90
2021/06/30 15:20:21;;;;;;;11.93;7.32;;;17.80;99.90;;;;;;4989061;28;20037;-88
2021/06/30 15:23:04;;;;;;;10.68;7.10;;;17.80;99.90;;;;;;5030658;28;20025;-88
2021/06/30 15:25:41;;;;;;;10.77;6.90;;;17.80;99.90;;;;;;5004260;28;20083;-89
2021/06/30 15:28:14;;;;;;;8.40;6.15;;;17.80;99.90;;;;;;5026417;28;20094;-89
2021/06/30 15:31:33;;;;;;;;;;;;;;;;;;;;;
2021/06/30 15:34:32;;;;;;;;;;;;;;;;;;;;;
2021/06/30 15:41:21;;;;;;;10.40;6.88;;;17.80;99.90;;;;;;4877572;29;20025;-89
2021/06/30 15:44:18;;;;;;;8.90;6.85;;;17.80;99.90;;;;;;4851977;29;20074;-91
2021/06/30 15:47:12;;;;;;;;;;;;;;;;;;;;;
2021/06/30 15:50:25;;;;;;;;;;;;;;;;;;;;;
2021/06/30 15:53:14;;;;;;;;;;;;;;;;;;;;;
2021/06/30 15:56:25;;;;;;;;;;;;;;;;;;;;;
2021/06/30 16:02:09;;;;;;;9.63;6.30;;;17.80;99.90;;;;;;4934943;29;20028;-93
2021/06/30 16:04:43;;;;;;;9.38;6.05;;;17.90;99.90;;;;;;4987218;28;20064;-88
2021/06/30 16:07:18;;;;;;;7.68;5.90;;;17.80;99.90;;;;;;5000834;28;20500;-87
2021/06/30 16:09:58;;;;;;;7.78;5.50;;;17.80;99.90;;;;;;5027091;28;20033;-89
2021/06/30 16:13:12;;;;;;;;;;;;;;;;;;;;;
2021/06/30 16:16:39;;;;;;;;;;;;;;;;;;;;;
2021/06/30 16:19:19;;;;;;;;;;;;;;;;;;;;;
2021/06/30 16:22:24;;;;;;;;;;;;;;;;;;;;;
2021/06/30 16:25:07;;;;;;;6.80;4.18;;;17.70;99.90;;;;;;5031698;28;20133;-90
2021/06/30 16:27:55;;;;;;;5.47;4.35;;;17.70;99.90;;;;;;5019131;28;20453;-90
2021/06/30 16:30:38;;;;;;;6.50;4.50;;;17.70;99.90;;;;;;5037086;28;20072;-90
2021/06/30 16:39:39;;;;;;;7.32;5.38;;;17.60;99.90;;;;;;4973008;28;20517;-88
2021/06/30 16:45:53;;;;;;;6.70;5.88;;;17.60;99.90;;;;;;4958730;28;20030;-90
2021/06/30 16:48:39;;;;;;;7.85;5.72;;;17.60;99.90;;;;;;4986655;28;20508;-90
2021/06/30 16:51:45;;;;;;;10.20;5.60;;;17.50;99.90;;;;;;4977515;28;20039;-91
2021/06/30 16:54:35;;;;;;;;;;;;;;;;;;;;;
2021/06/30 16:57:24;;;;;;;;;;;;;;;;;;;;;
2021/06/30 17:00:55;;;;;;;;;;;;;;;;;;;;;
2021/06/30 17:04:06;;;;;;;6.63;5.20;;;17.50;99.90;;;;;;4986423;28;20027;-90
2021/06/30 17:06:50;;;;;;;;;;;;;;;;;;;;;
2021/06/30 17:10:10;;;;;;;6.25;5.22;;;17.50;99.90;;;;;;4983834;28;20562;-91
2021/06/30 17:16:28;;;;;;;7.50;5.50;;;17.40;99.90;;;;;;5005019;28;20037;-90
2021/06/30 17:19:18;;;;;;;;;;;;;;;;;;;;;
2021/06/30 17:22:10;;;;;;;;;;;;;;;;;;;;;
2021/06/30 17:28:58;;;;;;;;;;;;;;;;;;;;;
2021/06/30 17:32:22;;;;;;;6.65;5.72;;;17.30;99.90;;;;;;5009957;28;20429;-90
2021/06/30 17:38:45;;;;;;;;;;;;;;;;;;;;;
2021/06/30 17:45:04;;;;;;;;;;;17.30;99.90;;;;;;4987805;28;20022;-90
2021/06/30 17:48:26;;;;;;;7.72;6.55;;;17.20;99.90;;;;;;4980706;28;20353;-92
2021/06/30 17:51:15;;;;;;;7.82;7.03;;;17.20;99.90;;;;;;5001615;28;20030;-93
2021/06/30 17:54:06;;;;;;;;;;;;;;;;;;;;;
2021/06/30 18:00:21;;;;;;;6.03;4.85;;;17.20;99.90;;;;;;4938344;28;20023;-90
2021/06/30 18:02:56;;;;;;;7.00;5.38;;;17.10;99.90;;;;;;4997875;28;20446;-92
2021/06/30 18:05:43;;;;;;;8.13;5.53;;;17.10;99.90;;;;;;5001403;28;20056;-91
2021/06/30 18:08:35;;;;;;;7.70;4.88;;;17.10;99.90;;;;;;5035001;28;20028;-91
2021/06/30 18:14:48;;;;;;;8.25;5.07;;;17.00;99.90;;;;;;5013937;28;20087;-91
2021/06/30 18:17:27;;;;;;;7.05;5.18;;;16.90;99.90;;;;;;5033276;28;20033;-90
2021/06/30 18:20:30;;;;;;;;;;;;;;;;;;;;;
2021/06/30 18:23:56;;;;;;;;;;;;;;;;;;;;;
2021/06/30 18:26:34;;;;;;;8.10;5.45;;;16.80;99.90;;;;;;5034334;28;20037;-91
2021/06/30 18:29:31;;;;;;;8.98;5.63;;;16.80;99.90;;;;;;5016568;28;20025;-90
2021/06/30 18:31:57;;;;;;;6.72;5.30;;;16.70;99.90;;;;;;5007114;28;20022;-90
2021/06/30 18:34:29;;;;;;;7.95;5.53;;;16.70;99.90;;;;;;5014858;28;20117;-90
2021/06/30 18:37:05;;;;;;;7.13;5.35;;;16.70;99.90;;;;;;5016665;28;20536;-90
2021/06/30 18:39:35;;;;;;;7.90;4.95;;;16.70;99.90;;;;;;5016646;28;20112;-91
2021/06/30 18:42:03;;;;;;;8.15;5.55;;;16.60;99.90;;;;;;5001047;28;20108;-90
2021/06/30 18:45:01;;;;;;;6.65;5.38;;;16.60;99.90;;;;;;4997778;28;20462;-89
2021/06/30 18:47:40;;;;;;;;;;;;;;;;;;;;;
2021/06/30 18:50:26;;;;;;;8.15;6.07;;;16.60;99.90;;;;;;5035017;28;20029;-91
2021/06/30 18:52:57;;;;;;;6.95;5.60;;;16.50;99.90;;;;;;4998152;28;20030;-91
2021/06/30 18:55:23;;;;;;;10.52;6.78;;;16.50;99.90;;;;;;5017133;28;20043;-91
2021/06/30 18:58:02;;;;;;;;;;;;;;;;;;;;;
2021/06/30 19:00:58;;;;;;;8.13;6.03;;;16.50;99.90;;;;;;5033180;28;20029;-90
2021/06/30 19:03:34;;;;;;;8.23;6.38;;;16.40;99.90;;;;;;5015816;28;20029;-90
2021/06/30 19:06:06;;;;;;;8.88;6.65;;;16.40;99.90;;;;;;4998247;28;20085;-90
2021/06/30 19:08:40;;;;;;;9.07;7.00;;;16.40;99.90;;;;;;4996991;28;20032;-91
2021/06/30 19:11:19;;;;;;;8.00;6.20;;;16.30;99.90;;;;;;5018180;28;20014;-91
2021/06/30 19:13:47;;;;;;;9.07;7.07;;;16.30;99.90;;;;;;5034907;28;20057;-91